createdAt,value
2022-07-26T06:31:50.824Z,17.70
2022-07-26T06:33:59.054Z,17.70
2022-07-26T06:36:08.954Z,17.70
2022-07-26T06:38:17.306Z,17.70
2022-07-26T06:40:27.429Z,17.70
2022-07-26T06:42:35.984Z,17.70
2022-07-26T06:44:44.250Z,17.70
2022-07-26T06:46:52.813Z,17.80
2022-07-26T06:49:01.161Z,17.80
2022-07-26T06:51:10.303Z,17.80
2022-07-26T06:53:18.755Z,17.80
2022-07-26T06:55:28.486Z,17.80
2022-07-26T06:57:44.696Z,17.90
2022-07-26T06:59:58.108Z,17.90
2022-07-26T07:02:06.539Z,17.90
2022-07-26T07:04:15.181Z,17.90
2022-07-26T07:06:25.234Z,18.00
2022-07-26T07:08:33.457Z,18.00
2022-07-26T07:10:43.570Z,18.00
2022-07-26T07:12:52.241Z,18.00
2022-07-26T07:15:00.434Z,18.00
2022-07-26T07:17:11.222Z,18.00
2022-07-26T07:19:22.472Z,18.00
2022-07-26T07:21:30.671Z,18.00
2022-07-26T07:23:38.852Z,18.00
2022-07-26T07:25:48.852Z,17.90
2022-07-26T07:28:00.362Z,17.90
2022-07-26T07:30:11.026Z,17.90
2022-07-26T07:32:19.766Z,17.90
2022-07-26T07:34:28.418Z,17.80
2022-07-26T07:36:36.676Z,17.80
2022-07-26T07:38:46.278Z,17.80
2022-07-26T07:40:56.058Z,17.80
2022-07-26T07:43:04.420Z,17.80
2022-07-26T07:45:12.912Z,17.70
2022-07-26T07:47:22.238Z,17.80
2022-07-26T07:49:30.573Z,17.80
2022-07-26T07:51:39.102Z,17.80
2022-07-26T07:53:56.344Z,17.90
2022-07-26T07:56:07.382Z,17.90
2022-07-26T07:58:17.423Z,18.00
2022-07-26T08:00:27.684Z,18.00
2022-07-26T08:02:36.275Z,17.80
2022-07-26T08:04:44.633Z,17.80
2022-07-26T09:56:48.652Z,20.10
2022-07-26T09:58:58.395Z,19.90
2022-07-26T10:01:08.204Z,19.80
2022-07-26T10:03:16.879Z,20.10
2022-07-26T10:05:25.958Z,20.30
2022-07-26T10:07:34.295Z,20.50
2022-07-26T10:09:49.964Z,20.30
2022-07-26T10:12:02.628Z,20.10
2022-07-26T10:14:40.553Z,20.10
2022-07-26T10:16:48.971Z,20.10
2022-07-26T10:18:58.043Z,20.00
2022-07-26T10:21:20.298Z,19.90
2022-07-26T10:23:37.822Z,19.90
2022-07-26T10:25:49.954Z,19.80
2022-07-26T10:27:58.985Z,19.90
2022-07-26T10:30:28.819Z,20.00
2022-07-26T10:32:42.747Z,19.90
2022-07-26T10:34:51.391Z,19.80
2022-07-26T10:37:00.736Z,19.80
2022-07-26T10:39:14.878Z,20.00
2022-07-26T10:41:32.849Z,20.10
2022-07-26T10:43:42.340Z,20.10
2022-07-26T10:46:25.161Z,20.20
2022-07-26T10:48:33.922Z,20.10
2022-07-26T10:50:43.856Z,20.40
2022-07-26T10:53:00.119Z,20.50
2022-07-26T10:55:09.731Z,20.70
2022-07-26T10:57:18.043Z,20.80
2022-07-26T10:59:54.768Z,21.00
2022-07-26T11:02:04.299Z,21.30
2022-07-26T12:25:29.175Z,21.90
2022-07-26T12:27:47.525Z,21.80
2022-07-26T12:30:14.852Z,21.90
2022-07-26T12:32:24.847Z,21.90
2022-07-26T12:34:35.646Z,21.70
2022-07-26T12:36:43.887Z,21.50
2022-07-26T12:38:56.136Z,21.50
2022-07-26T12:41:05.293Z,21.20
2022-07-26T12:43:13.471Z,21.00
2022-07-26T12:45:23.740Z,20.90
2022-07-26T12:47:32.371Z,20.70
2022-07-26T12:49:42.364Z,20.50
2022-07-26T12:51:50.982Z,20.40
2022-07-26T12:53:59.675Z,20.20
2022-07-26T12:56:07.928Z,20.20
2022-07-26T12:58:16.201Z,20.10
2022-07-26T13:00:24.927Z,20.40
2022-07-26T13:02:33.277Z,20.40
2022-07-26T13:04:43.106Z,20.70
2022-07-26T13:06:51.435Z,21.00
2022-07-26T13:09:00.882Z,20.90
2022-07-26T13:11:09.152Z,20.80
2022-07-26T13:13:17.524Z,20.40
2022-07-26T13:15:36.001Z,20.10
2022-07-26T13:17:45.689Z,20.10
2022-07-26T13:19:55.427Z,20.70
2022-07-26T13:22:04.954Z,21.10
2022-07-26T13:24:13.446Z,21.40
2022-07-26T13:26:21.821Z,21.00
2022-07-26T13:28:30.598Z,21.10
2022-07-26T13:30:43.175Z,21.30
2022-07-26T13:32:51.992Z,21.40
2022-07-26T13:35:02.044Z,21.60
2022-07-26T13:37:10.266Z,21.80
2022-07-26T13:39:19.386Z,21.30
2022-07-26T13:41:27.859Z,21.20
2022-07-26T13:43:39.101Z,21.30
2022-07-26T13:45:47.402Z,21.30
2022-07-26T13:47:55.621Z,21.20
2022-07-26T13:50:07.809Z,21.60
2022-07-26T13:52:17.041Z,21.80
2022-07-26T13:54:27.821Z,21.60
2022-07-26T13:56:36.025Z,21.40
2022-07-26T13:58:44.322Z,21.60
2022-07-26T14:00:52.715Z,22.10
2022-07-26T14:03:01.267Z,22.40
2022-07-26T14:05:11.839Z,22.50
2022-07-26T14:07:20.083Z,22.20
2022-07-26T14:09:28.563Z,21.60
2022-07-26T14:11:37.175Z,22.00
2022-07-26T14:13:45.589Z,22.10
2022-07-26T14:15:53.889Z,22.10
2022-07-26T14:18:03.129Z,22.00
2022-07-26T14:20:14.034Z,21.60
2022-07-26T14:22:22.319Z,21.60
2022-07-26T14:24:30.818Z,21.60
2022-07-26T14:26:39.018Z,21.50
2022-07-26T14:28:47.448Z,21.60
2022-07-26T14:30:56.098Z,21.70
2022-07-26T14:33:06.293Z,21.70
2022-07-26T14:35:17.738Z,21.40
2022-07-26T14:37:41.571Z,20.90
2022-07-26T14:39:51.240Z,20.70
2022-07-26T14:41:59.828Z,20.70
2022-07-26T14:44:08.459Z,20.60
2022-07-26T14:46:17.388Z,20.60
2022-07-26T14:48:51.885Z,20.50
2022-07-26T14:51:09.172Z,20.50
2022-07-26T14:53:19.350Z,20.60
2022-07-26T14:55:28.486Z,20.70
2022-07-26T14:57:38.214Z,20.60
2022-07-26T14:59:49.320Z,20.50
2022-07-26T15:02:01.347Z,20.50
2022-07-26T15:04:13.966Z,20.40
2022-07-26T15:06:25.082Z,20.40
2022-07-26T15:08:33.329Z,20.20
2022-07-26T15:10:41.741Z,20.20
2022-07-26T15:12:50.340Z,20.50
2022-07-26T15:14:58.658Z,20.60
2022-07-26T15:17:06.888Z,20.50
2022-07-26T15:19:22.162Z,20.20
2022-07-26T15:21:34.857Z,20.10
2022-07-26T15:23:46.299Z,20.30
2022-07-26T15:25:54.676Z,20.50
2022-07-26T15:28:02.995Z,21.00
2022-07-26T15:30:14.742Z,21.10
2022-07-26T15:32:23.514Z,21.00
2022-07-26T15:34:31.787Z,20.70
2022-07-26T15:36:41.807Z,20.50
2022-07-26T15:38:49.991Z,20.30
2022-07-26T15:40:58.266Z,20.20
2022-07-26T15:43:06.934Z,20.20
2022-07-26T15:45:15.985Z,20.00
2022-07-26T15:47:53.222Z,20.00
2022-07-26T15:49:52.680Z,19.90
2022-07-26T15:52:02.442Z,19.90
2022-07-26T15:54:12.152Z,19.90
2022-07-26T15:56:20.766Z,19.80
2022-07-26T15:58:30.009Z,19.80
2022-07-26T16:00:41.442Z,19.70
2022-07-26T16:02:49.784Z,19.60
2022-07-26T16:05:01.022Z,19.60
2022-07-26T16:07:11.148Z,19.50
2022-07-26T16:09:20.017Z,19.50
2022-07-26T16:11:29.375Z,19.40
2022-07-26T16:13:37.642Z,19.40
2022-07-26T16:15:46.056Z,19.40
2022-07-26T16:17:54.313Z,19.40
2022-07-26T16:20:02.844Z,19.40
2022-07-26T16:22:12.556Z,19.40
2022-07-26T16:24:20.938Z,19.40
2022-07-26T16:26:29.190Z,19.80
2022-07-26T16:28:37.507Z,20.10
2022-07-26T16:30:48.775Z,20.30
2022-07-26T16:32:57.100Z,20.80
2022-07-26T16:35:05.768Z,20.70
2022-07-26T16:37:15.663Z,20.80
2022-07-26T16:39:24.234Z,20.50
2022-07-26T16:41:32.750Z,20.20
2022-07-26T16:43:41.094Z,20.10
2022-07-26T16:45:49.363Z,20.10
2022-07-26T16:47:59.999Z,20.90
2022-07-26T16:50:09.130Z,20.80
2022-07-26T16:52:18.944Z,21.00
2022-07-26T16:54:27.646Z,20.60
2022-07-26T16:56:36.732Z,21.00
2022-07-26T16:58:45.084Z,21.40
2022-07-26T17:00:53.896Z,21.50
2022-07-26T17:03:02.235Z,21.50
2022-07-26T17:05:11.056Z,21.80
2022-07-26T17:07:25.918Z,21.70
2022-07-26T17:09:34.686Z,21.30
2022-07-26T17:11:43.065Z,21.70
2022-07-26T17:13:51.243Z,22.00
2022-07-26T17:15:59.512Z,22.40
2022-07-26T17:18:08.157Z,22.70
2022-07-26T17:20:16.506Z,23.10
2022-07-26T17:22:26.497Z,23.20
2022-07-26T17:24:34.730Z,23.80
2022-07-26T17:26:43.132Z,22.10
2022-07-26T17:28:51.478Z,21.90
2022-07-26T17:31:01.028Z,22.60
2022-07-26T17:33:10.356Z,22.90
2022-07-26T17:35:19.682Z,22.80
2022-07-26T17:37:29.284Z,22.50
2022-07-26T17:39:53.657Z,21.60
2022-07-26T17:42:02.627Z,21.10
2022-07-26T17:44:11.075Z,20.80
2022-07-26T17:46:19.620Z,20.70
2022-07-26T17:48:28.004Z,20.20
2022-07-26T17:50:37.830Z,19.90
2022-07-26T17:52:48.933Z,19.70
2022-07-26T17:54:58.979Z,20.20
2022-07-26T17:57:07.269Z,21.20
2022-07-26T17:59:15.575Z,21.60
2022-07-26T18:01:23.863Z,20.80
2022-07-26T18:03:32.315Z,20.20
2022-07-26T18:05:41.571Z,19.80
2022-07-26T18:07:51.435Z,19.50
2022-07-26T18:09:59.658Z,19.60
2022-07-26T18:12:08.170Z,20.20
2022-07-26T18:14:16.782Z,20.40
2022-07-26T18:16:25.170Z,20.30
2022-07-26T18:18:33.587Z,20.40
2022-07-26T18:20:41.946Z,19.70
2022-07-26T18:22:51.645Z,19.70
2022-07-26T18:25:00.297Z,20.00
2022-07-26T18:27:08.937Z,19.70
2022-07-26T18:29:17.524Z,19.40
2022-07-26T18:31:26.067Z,19.20
2022-07-26T18:33:34.388Z,19.10
2022-07-26T18:35:43.410Z,19.00
2022-07-26T18:37:54.042Z,18.90
2022-07-26T18:40:02.402Z,18.80
2022-07-26T18:42:10.726Z,18.80
2022-07-26T18:44:19.310Z,18.70
2022-07-26T18:46:28.097Z,18.70
2022-07-26T18:48:36.673Z,18.70
2022-07-26T18:50:52.371Z,18.70
2022-07-26T18:53:03.134Z,18.60
2022-07-26T18:55:12.791Z,18.50
2022-07-26T18:57:21.363Z,18.50
2022-07-26T18:59:31.251Z,18.50
2022-07-26T19:01:39.820Z,18.40
2022-07-26T19:03:48.059Z,18.40
2022-07-26T19:05:56.453Z,18.30
2022-07-26T19:08:06.994Z,18.30
2022-07-26T19:10:15.503Z,18.30
2022-07-26T19:12:23.714Z,18.30
2022-07-26T19:14:31.965Z,18.20
2022-07-26T19:16:40.536Z,18.20
2022-07-26T19:18:51.662Z,18.10
2022-07-26T19:21:00.965Z,18.00
2022-07-26T19:23:11.403Z,17.90
2022-07-26T19:25:19.982Z,17.90
2022-07-26T19:27:29.318Z,17.90
2022-07-26T19:29:37.646Z,17.80
2022-07-26T19:31:46.038Z,17.80
2022-07-26T19:33:54.780Z,17.70
2022-07-26T19:36:03.349Z,17.60
2022-07-26T19:38:13.458Z,17.50
2022-07-26T19:40:21.994Z,17.40
2022-07-26T19:42:31.866Z,17.30
2022-07-26T19:44:40.525Z,17.20
2022-07-26T19:46:50.234Z,17.20
2022-07-26T19:49:00.828Z,17.10
2022-07-26T19:51:09.184Z,17.10
2022-07-26T20:08:07.774Z,16.70
2022-07-26T20:10:18.255Z,16.70
2022-07-26T20:12:26.426Z,16.70
2022-07-26T20:14:34.825Z,16.60
2022-07-26T20:16:43.502Z,16.60
2022-07-26T20:18:51.763Z,16.70
2022-07-26T20:21:01.080Z,16.60
2022-07-26T20:23:11.063Z,16.60
2022-07-26T20:25:22.044Z,16.60
2022-07-26T20:27:30.428Z,16.60
2022-07-26T20:29:38.818Z,16.50
2022-07-26T20:31:47.265Z,16.50
2022-07-26T20:33:55.576Z,16.40
2022-07-26T20:36:03.863Z,16.40
2022-07-26T20:38:12.247Z,16.40
2022-07-26T20:40:22.779Z,16.30
2022-07-26T20:42:31.200Z,16.40
2022-07-26T20:44:40.007Z,16.40
2022-07-26T20:46:48.237Z,16.40
2022-07-26T20:48:56.595Z,16.30
2022-07-26T20:51:13.310Z,16.30
2022-07-26T20:53:22.103Z,16.30
2022-07-26T20:55:31.825Z,16.30
2022-07-26T20:57:40.186Z,16.30
2022-07-26T20:59:48.430Z,16.20
2022-07-26T21:01:57.046Z,16.20
2022-07-26T21:04:05.717Z,16.20
2022-07-26T21:06:14.086Z,16.10
2022-07-26T21:08:22.885Z,16.10
2022-07-26T21:10:33.282Z,16.00
2022-07-26T21:12:41.419Z,16.00
2022-07-26T21:14:49.862Z,16.00
2022-07-26T21:16:59.845Z,16.00
2022-07-26T21:19:08.787Z,16.00
2022-07-26T21:21:17.322Z,16.10
2022-07-26T21:23:25.584Z,16.10
2022-07-26T21:25:35.568Z,16.00
2022-07-26T21:27:44.054Z,16.00
2022-07-26T21:29:52.335Z,16.00
2022-07-26T21:32:00.882Z,16.00
2022-07-26T21:34:10.074Z,15.90
2022-07-26T21:36:20.169Z,15.90
2022-07-26T21:38:31.918Z,16.00
2022-07-26T21:40:42.298Z,15.90
2022-07-26T21:42:50.925Z,15.90
2022-07-26T21:44:59.461Z,15.90
2022-07-26T21:47:08.270Z,15.90
2022-07-26T21:49:18.430Z,15.90
2022-07-26T21:51:29.506Z,15.90
2022-07-26T21:53:40.610Z,16.00
2022-07-26T21:55:50.433Z,15.90
2022-07-26T21:57:59.061Z,15.90
2022-07-26T22:00:08.931Z,15.90
2022-07-26T22:02:20.124Z,15.90
